Time;durP1;ratioP1;P1;durP2;ratioP2;P2;SDS_P1;SDS_P2;PMS_P1;PMS_P2;Temp;Humidity;BMP_temperature;BMP_pressure;BME280_temperature;BME280_humidity;BME280_pressure;Samples;Min_cycle;Max_cycle;Signal;HPM_P1;HPM_P2
2023/01/03 00:00:40;;;;;;;13.00;5.47;;;3.30;99.90;;;;;;5008875;28;20446;-67
2023/01/03 00:03:06;;;;;;;11.20;5.55;;;3.20;99.90;;;;;;5009701;28;20119;-66
2023/01/03 00:05:35;;;;;;;13.95;5.25;;;3.30;99.90;;;;;;5022142;28;20029;-66
2023/01/03 00:08:01;;;;;;;9.85;5.07;;;3.30;99.90;;;;;;5007627;28;20039;-68
2023/01/03 00:10:28;;;;;;;11.38;5.70;;;3.30;99.90;;;;;;4988711;28;20042;-68
2023/01/03 00:12:55;;;;;;;10.15;5.40;;;3.30;99.90;;;;;;5005359;28;20084;-66
2023/01/03 00:15:20;;;;;;;11.63;4.45;;;3.30;99.90;;;;;;5007209;28;20681;-67
2023/01/03 00:17:46;;;;;;;11.02;5.78;;;3.30;99.90;;;;;;5010810;28;20048;-67
2023/01/03 00:20:12;;;;;;;11.27;5.43;;;3.20;99.90;;;;;;5019320;28;20049;-66
2023/01/03 00:22:38;;;;;;;10.50;5.70;;;3.20;99.90;;;;;;5012102;28;20044;-67
2023/01/03 00:25:03;;;;;;;12.50;5.55;;;3.20;99.90;;;;;;5006770;28;20034;-67
2023/01/03 00:27:29;;;;;;;11.40;5.68;;;3.20;99.90;;;;;;5011031;28;20404;-67
2023/01/03 00:29:55;;;;;;;13.02;5.20;;;3.20;99.90;;;;;;5007196;28;20077;-67
2023/01/03 00:32:21;;;;;;;15.32;5.30;;;3.00;99.90;;;;;;5004322;28;20246;-67
2023/01/03 00:34:46;;;;;;;12.05;4.80;;;3.00;99.90;;;;;;5004146;28;20060;-67
2023/01/03 00:37:13;;;;;;;7.47;5.47;;;2.90;99.90;;;;;;5005928;28;20516;-66
2023/01/03 00:39:39;;;;;;;14.38;5.70;;;2.80;99.90;;;;;;5004148;28;20061;-67
2023/01/03 00:42:05;;;;;;;12.52;4.97;;;2.80;99.90;;;;;;5014760;28;20045;-67
2023/01/03 00:44:32;;;;;;;12.00;5.53;;;2.70;99.90;;;;;;5025399;28;20121;-67
2023/01/03 00:46:57;;;;;;;9.60;5.15;;;2.80;99.90;;;;;;5017240;28;20771;-67
2023/01/03 00:49:23;;;;;;;14.80;5.53;;;2.70;99.90;;;;;;5014238;28;20038;-66
2023/01/03 00:51:49;;;;;;;12.20;5.30;;;2.60;99.90;;;;;;5022036;28;20084;-67
2023/01/03 00:54:15;;;;;;;8.75;5.53;;;2.50;99.90;;;;;;5031484;28;20087;-66
2023/01/03 00:56:45;;;;;;;12.57;6.28;;;2.50;99.90;;;;;;5013197;28;20057;-67
2023/01/03 00:59:13;;;;;;;14.70;6.50;;;2.60;99.90;;;;;;5010430;28;20155;-68
2023/01/03 01:01:45;;;;;;;13.75;6.93;;;2.70;99.90;;;;;;5018766;28;20061;-67
2023/01/03 01:04:24;;;;;;;13.23;6.82;;;2.50;99.90;;;;;;5014341;28;20033;-66
2023/01/03 01:06:55;;;;;;;17.33;8.10;;;2.60;99.90;;;;;;5006816;28;20041;-66
2023/01/03 01:09:25;;;;;;;15.35;7.85;;;2.60;99.90;;;;;;5009149;28;20160;-67
2023/01/03 01:11:51;;;;;;;19.88;8.27;;;2.70;99.90;;;;;;5015985;28;20568;-66
2023/01/03 01:14:21;;;;;;;12.52;7.65;;;2.90;99.90;;;;;;4991889;28;20071;-67
2023/01/03 01:16:56;;;;;;;22.60;8.80;;;2.90;99.90;;;;;;5010618;28;20045;-65
2023/01/03 01:19:30;;;;;;;15.07;8.15;;;3.00;99.90;;;;;;5018174;28;20766;-67
2023/01/03 01:21:57;;;;;;;19.88;8.68;;;3.10;99.90;;;;;;5012640;28;20080;-66
2023/01/03 01:24:23;;;;;;;19.55;9.57;;;3.20;99.90;;;;;;5006868;28;20943;-66
2023/01/03 01:26:49;;;;;;;17.58;8.15;;;3.10;99.90;;;;;;5007880;28;20053;-65
2023/01/03 01:29:16;;;;;;;17.95;8.57;;;3.20;99.90;;;;;;5003516;28;20393;-66
2023/01/03 01:31:42;;;;;;;19.58;9.45;;;3.30;99.90;;;;;;5008029;28;20037;-67
2023/01/03 01:34:08;;;;;;;17.38;9.15;;;3.30;99.90;;;;;;5004879;28;20095;-67
2023/01/03 01:36:40;;;;;;;20.90;9.52;;;3.30;99.90;;;;;;5006330;28;20040;-67
2023/01/03 01:39:27;;;;;;;21.15;9.40;;;3.40;99.90;;;;;;4989765;28;21236;-67
2023/01/03 01:44:56;;;;;;;18.20;9.05;;;3.40;99.90;;;;;;5011688;28;20046;-67
2023/01/03 01:47:33;;;;;;;18.27;9.07;;;3.40;99.90;;;;;;5019872;28;20120;-67
2023/01/03 01:50:05;;;;;;;23.60;10.23;;;3.40;99.90;;;;;;5016363;28;20103;-66
2023/01/03 01:52:34;;;;;;;21.77;10.02;;;3.40;99.90;;;;;;5026639;28;20046;-68
2023/01/03 01:55:03;;;;;;;21.45;10.20;;;3.30;99.90;;;;;;5023298;28;20052;-68
2023/01/03 01:57:29;;;;;;;23.92;9.80;;;3.30;99.90;;;;;;5011000;28;20176;-67
2023/01/03 01:59:54;;;;;;;22.70;9.82;;;3.20;99.90;;;;;;5022760;28;20060;-67
2023/01/03 02:02:22;;;;;;;15.60;8.88;;;3.10;99.90;;;;;;5000414;28;20033;-68
2023/01/03 02:04:53;;;;;;;20.65;8.93;;;3.10;99.90;;;;;;5038626;28;20636;-68
2023/01/03 02:07:20;;;;;;;20.83;11.75;;;3.00;99.90;;;;;;5007839;28;21067;-67
2023/01/03 02:09:47;;;;;;;17.50;8.85;;;2.90;99.90;;;;;;5007240;28;20347;-66
2023/01/03 02:15:59;;;;;;;20.20;9.07;;;2.80;99.90;;;;;;5006720;28;20054;-66
2023/01/03 02:18:53;;;;;;;21.30;9.80;;;2.80;99.90;;;;;;5004647;28;20053;-66
2023/01/03 02:21:37;;;;;;;21.92;9.50;;;2.70;99.90;;;;;;5000521;28;20479;-66
2023/01/03 02:24:13;;;;;;;18.73;10.02;;;2.70;99.90;;;;;;5005639;28;20038;-67
2023/01/03 02:26:54;;;;;;;16.63;9.52;;;2.60;99.90;;;;;;5026635;28;20046;-66
2023/01/03 02:29:53;;;;;;;25.40;10.80;;;2.50;99.90;;;;;;4999076;28;20533;-67
2023/01/03 02:32:32;;;;;;;24.67;11.40;;;2.60;99.90;;;;;;5008449;28;20091;-66
2023/01/03 02:35:15;;;;;;;22.75;10.20;;;2.60;99.90;;;;;;5007884;28;20045;-66
2023/01/03 02:37:50;;;;;;;22.15;10.90;;;2.70;99.90;;;;;;5007261;28;20056;-68
2023/01/03 02:40:38;;;;;;;26.65;11.95;;;2.70;99.90;;;;;;4995739;28;20481;-67
2023/01/03 02:43:16;;;;;;;23.40;11.00;;;2.60;99.90;;;;;;5003054;28;20030;-66
2023/01/03 02:45:52;;;;;;;22.73;11.05;;;2.60;99.90;;;;;;5006997;28;20077;-67
2023/01/03 02:48:41;;;;;;;27.10;12.05;;;2.50;99.90;;;;;;5006587;28;20473;-68
2023/01/03 02:51:33;;;;;;;29.55;10.73;;;2.50;99.90;;;;;;5004209;28;20438;-66
2023/01/03 02:54:01;;;;;;;25.42;10.93;;;2.50;99.90;;;;;;5005339;28;20037;-68
2023/01/03 02:56:49;;;;;;;20.60;9.57;;;2.50;99.90;;;;;;5022452;28;20057;-68
2023/01/03 02:59:20;;;;;;;22.63;11.13;;;2.50;99.90;;;;;;5016436;28;20077;-66
2023/01/03 03:01:49;;;;;;;18.42;9.95;;;2.60;99.90;;;;;;5016939;28;20370;-67
2023/01/03 03:04:16;;;;;;;24.02;10.30;;;2.60;99.90;;;;;;5019747;28;20406;-67
2023/01/03 03:06:47;;;;;;;19.52;11.00;;;2.70;99.90;;;;;;5020184;28;20458;-66
2023/01/03 03:09:13;;;;;;;28.38;11.63;;;2.70;99.90;;;;;;5018342;28;20046;-66
2023/01/03 03:14:33;;;;;;;23.80;11.35;;;2.90;99.90;;;;;;5023706;28;20048;-66
2023/01/03 03:17:04;;;;;;;25.08;11.75;;;2.90;99.90;;;;;;5014480;28;20034;-67
2023/01/03 03:25:36;;;;;;;24.50;11.98;;;2.80;99.90;;;;;;5018472;28;20049;-67
2023/01/03 03:30:55;;;;;;;23.00;11.70;;;2.60;99.90;;;;;;5006999;28;20474;-67
2023/01/03 03:33:23;;;;;;;24.05;10.75;;;2.60;99.90;;;;;;5014561;28;20092;-67
2023/01/03 03:36:28;;;;;;;25.30;11.13;;;2.50;99.90;;;;;;5003704;28;20046;-67
2023/01/03 03:38:53;;;;;;;24.58;11.25;;;2.50;99.90;;;;;;5006346;28;20049;-67
2023/01/03 03:45:08;;;;;;;23.92;12.13;;;2.30;99.90;;;;;;5005595;28;20042;-66
2023/01/03 03:47:33;;;;;;;23.67;11.57;;;2.40;99.90;;;;;;5005166;28;21435;-67
2023/01/03 03:50:18;;;;;;;25.00;10.57;;;2.30;99.90;;;;;;5013997;28;20052;-66
2023/01/03 03:52:47;;;;;;;26.17;11.60;;;2.20;99.90;;;;;;5005691;28;20373;-67
2023/01/03 03:55:24;;;;;;;23.38;11.40;;;2.20;99.90;;;;;;4991660;28;20466;-66
2023/01/03 03:57:57;;;;;;;23.30;11.00;;;2.20;99.90;;;;;;4993972;28;20045;-66
2023/01/03 04:00:28;;;;;;;26.25;11.93;;;2.30;99.90;;;;;;5018057;28;20125;-66
2023/01/03 04:02:57;;;;;;;30.45;13.05;;;2.20;99.90;;;;;;4996333;28;20045;-68
2023/01/03 04:05:26;;;;;;;29.17;13.60;;;2.20;99.90;;;;;;5012122;28;20164;-66
2023/01/03 04:07:52;;;;;;;30.30;12.77;;;2.10;99.90;;;;;;5003221;28;20084;-66
2023/01/03 04:10:19;;;;;;;28.52;13.00;;;2.20;99.90;;;;;;5000755;28;20793;-67
2023/01/03 04:12:49;;;;;;;31.30;14.02;;;2.30;99.90;;;;;;5012806;28;20053;-67
2023/01/03 04:15:15;;;;;;;36.03;14.77;;;2.30;99.90;;;;;;5005564;28;20481;-66
2023/01/03 04:17:41;;;;;;;29.80;13.35;;;2.40;99.90;;;;;;5009039;28;20041;-68
2023/01/03 04:20:08;;;;;;;37.80;15.27;;;2.40;99.90;;;;;;5012729;28;20049;-66
2023/01/03 04:22:33;;;;;;;40.45;15.98;;;2.50;99.90;;;;;;5022125;28;20379;-67
2023/01/03 04:24:59;;;;;;;39.15;16.48;;;2.50;99.90;;;;;;5022836;28;20087;-67
2023/01/03 04:27:25;;;;;;;46.97;17.55;;;2.50;99.90;;;;;;5008354;28;20525;-66
2023/01/03 04:29:50;;;;;;;36.17;16.02;;;2.50;99.90;;;;;;5004722;28;20480;-67
2023/01/03 04:32:16;;;;;;;37.58;16.05;;;2.60;99.90;;;;;;5005169;28;22695;-66
2023/01/03 04:34:41;;;;;;;40.97;18.05;;;2.70;99.90;;;;;;5006939;28;20648;-68
2023/01/03 04:37:07;;;;;;;37.70;16.38;;;2.60;99.90;;;;;;5023084;28;20060;-67
2023/01/03 04:39:32;;;;;;;39.20;16.88;;;2.60;99.90;;;;;;5014128;28;20040;-66
2023/01/03 04:42:00;;;;;;;45.40;16.65;;;2.70;99.90;;;;;;4993179;28;20038;-67
2023/01/03 04:44:26;;;;;;;50.13;17.95;;;2.80;99.90;;;;;;5013772;28;20038;-67
2023/01/03 04:46:52;;;;;;;46.28;18.02;;;2.80;99.90;;;;;;5002917;28;20413;-67
2023/01/03 04:49:17;;;;;;;37.53;16.48;;;2.90;99.90;;;;;;5017013;28;20052;-66
2023/01/03 04:51:43;;;;;;;39.97;17.42;;;2.90;99.90;;;;;;5002406;28;20046;-66
2023/01/03 04:54:08;;;;;;;34.42;15.40;;;2.80;99.90;;;;;;5012221;28;20051;-66
2023/01/03 04:56:36;;;;;;;41.47;18.00;;;2.80;99.90;;;;;;5025096;28;20326;-67
2023/01/03 04:59:01;;;;;;;39.25;16.63;;;2.80;99.90;;;;;;4992931;28;20042;-67
2023/01/03 05:01:27;;;;;;;38.13;16.38;;;2.80;99.90;;;;;;5006942;28;20536;-67
2023/01/03 05:03:57;;;;;;;35.08;15.38;;;2.80;99.90;;;;;;5004465;28;20108;-68
2023/01/03 05:06:23;;;;;;;40.60;15.95;;;2.70;99.90;;;;;;5004545;28;20029;-66
2023/01/03 05:08:49;;;;;;;37.05;16.77;;;2.80;99.90;;;;;;5007687;28;20531;-67
2023/01/03 05:11:15;;;;;;;46.78;17.77;;;2.80;99.90;;;;;;5002429;28;20041;-67
2023/01/03 05:13:40;;;;;;;39.50;16.90;;;2.90;99.90;;;;;;5007223;28;20049;-67
2023/01/03 05:16:12;;;;;;;39.80;15.15;;;2.80;99.90;;;;;;4999451;28;20152;-67
2023/01/03 05:18:38;;;;;;;37.28;16.63;;;2.90;99.90;;;;;;4992797;28;20045;-67
2023/01/03 05:26:41;;;;;;;40.83;17.25;;;3.00;99.90;;;;;;4997192;28;20579;-66
2023/01/03 05:29:08;;;;;;;41.00;16.52;;;3.10;99.90;;;;;;5014775;28;20096;-67
2023/01/03 05:31:34;;;;;;;40.35;17.73;;;3.00;99.90;;;;;;5015794;28;20057;-66
2023/01/03 05:34:00;;;;;;;43.58;18.75;;;2.90;99.90;;;;;;5015213;28;20041;-67
2023/01/03 05:36:25;;;;;;;39.20;17.20;;;3.00;99.90;;;;;;5026305;28;20118;-67
2023/01/03 05:38:51;;;;;;;41.45;17.40;;;3.00;99.90;;;;;;5011053;28;20034;-67
2023/01/03 05:41:58;;;;;;;39.47;17.40;;;3.10;99.90;;;;;;5007404;28;20036;-67
2023/01/03 05:44:02;;;;;;;44.85;16.92;;;3.00;99.90;;;;;;5005265;28;20129;-67
2023/01/03 05:46:28;;;;;;;37.28;16.42;;;3.10;99.90;;;;;;5021004;28;20120;-67
2023/01/03 05:48:53;;;;;;;34.53;16.65;;;3.00;99.90;;;;;;5022104;28;20130;-65
2023/01/03 05:51:19;;;;;;;42.20;18.58;;;3.00;99.90;;;;;;5009584;28;20049;-67
2023/01/03 05:53:44;;;;;;;43.88;18.45;;;2.90;99.90;;;;;;5008920;28;20049;-68
2023/01/03 05:56:10;;;;;;;40.50;17.83;;;2.90;99.90;;;;;;5015016;28;20111;-67
2023/01/03 05:58:35;;;;;;;39.53;16.73;;;2.90;99.90;;;;;;5002525;28;20049;-66
2023/01/03 06:01:07;;;;;;;37.60;16.58;;;2.80;99.90;;;;;;5005070;28;20180;-67
2023/01/03 06:03:33;;;;;;;42.53;17.95;;;2.80;99.90;;;;;;5017681;28;20038;-66
2023/01/03 06:06:05;;;;;;;44.55;18.55;;;2.70;99.90;;;;;;5007699;28;20536;-67
2023/01/03 06:08:31;;;;;;;43.25;18.42;;;2.60;99.90;;;;;;5027284;28;20148;-66
2023/01/03 06:10:57;;;;;;;40.55;18.60;;;2.60;99.90;;;;;;5004044;28;20050;-67
2023/01/03 06:13:22;;;;;;;41.13;18.30;;;2.60;99.90;;;;;;5014962;28;20371;-67
2023/01/03 06:17:53;;;;;;;40.33;17.55;;;2.50;99.90;;;;;;5011559;28;20367;-66
2023/01/03 06:18:35;;;;;;;42.33;17.85;;;2.40;99.90;;;;;;5009070;28;20081;-66
2023/01/03 06:21:04;;;;;;;38.72;17.98;;;2.40;99.90;;;;;;5006485;28;20518;-67
2023/01/03 06:23:30;;;;;;;46.38;18.42;;;2.40;99.90;;;;;;5001982;28;20065;-67
2023/01/03 06:25:56;;;;;;;36.65;17.50;;;2.30;99.90;;;;;;5007971;28;20197;-67
2023/01/03 06:28:21;;;;;;;38.00;16.90;;;2.40;99.90;;;;;;4998742;28;21089;-67
2023/01/03 06:30:47;;;;;;;43.17;19.40;;;2.30;99.90;;;;;;5013714;28;20025;-66
2023/01/03 06:33:12;;;;;;;44.00;18.90;;;2.30;99.90;;;;;;5004249;28;20041;-67
2023/01/03 06:35:38;;;;;;;41.90;18.85;;;2.30;99.90;;;;;;5019052;28;20073;-66
2023/01/03 06:38:04;;;;;;;45.28;20.75;;;2.30;99.90;;;;;;5009595;28;20045;-67
2023/01/03 06:40:30;;;;;;;39.78;18.48;;;2.20;99.90;;;;;;5007960;28;20049;-67
2023/01/03 06:42:55;;;;;;;42.05;19.35;;;2.20;99.90;;;;;;5019374;28;20627;-66
2023/01/03 06:53:37;;;;;;;42.00;19.52;;;2.20;99.90;;;;;;5016404;28;20081;-67
2023/01/03 06:56:04;;;;;;;42.00;19.40;;;2.20;99.90;;;;;;5019224;28;20141;-66
2023/01/03 06:58:29;;;;;;;42.58;19.20;;;2.20;99.90;;;;;;5007151;28;20045;-67
2023/01/03 07:00:56;;;;;;;41.63;18.00;;;2.20;99.90;;;;;;5004124;28;20088;-67
2023/01/03 07:03:23;;;;;;;38.72;18.55;;;2.10;99.90;;;;;;5005072;28;20042;-66
2023/01/03 07:05:49;;;;;;;40.70;19.13;;;2.00;99.90;;;;;;5006500;28;20037;-68
2023/01/03 07:08:14;;;;;;;42.10;19.67;;;2.00;99.90;;;;;;5004582;28;20041;-67
2023/01/03 07:10:40;;;;;;;41.88;18.50;;;2.10;99.90;;;;;;5012057;28;20449;-66
2023/01/03 07:15:50;;;;;;;42.85;18.70;;;1.90;99.90;;;;;;5012513;28;20045;-68
2023/01/03 07:18:16;;;;;;;45.15;19.40;;;2.00;99.90;;;;;;5018123;28;20049;-67
2023/01/03 07:20:43;;;;;;;42.70;19.88;;;2.00;99.90;;;;;;5017668;28;20042;-67
2023/01/03 07:23:10;;;;;;;43.03;19.08;;;1.90;99.90;;;;;;5008326;28;20127;-67
2023/01/03 07:25:39;;;;;;;36.33;18.48;;;2.00;99.90;;;;;;5014862;28;20041;-67
2023/01/03 07:28:07;;;;;;;39.05;18.90;;;1.90;99.90;;;;;;5022804;28;20049;-67
2023/01/03 07:30:36;;;;;;;41.53;19.48;;;1.80;99.90;;;;;;5015832;28;20405;-67
2023/01/03 07:33:02;;;;;;;44.15;19.77;;;1.80;99.90;;;;;;5018098;28;20102;-67
2023/01/03 07:35:31;;;;;;;39.55;18.67;;;1.70;99.90;;;;;;5022673;28;20080;-66
2023/01/03 07:37:56;;;;;;;41.80;19.45;;;1.60;99.90;;;;;;5020387;28;20041;-67
2023/01/03 07:40:22;;;;;;;42.40;20.95;;;1.60;99.90;;;;;;5019713;28;20056;-66
2023/01/03 07:45:31;;;;;;;52.88;23.17;;;1.70;99.90;;;;;;5020188;28;20038;-65
2023/01/03 07:47:57;;;;;;;57.08;25.00;;;1.70;99.90;;;;;;5025944;28;20033;-67
2023/01/03 07:50:22;;;;;;;49.40;23.50;;;1.80;99.90;;;;;;5024050;28;20073;-66
2023/01/03 07:52:48;;;;;;;55.67;24.50;;;1.80;99.90;;;;;;5025761;28;20047;-66
2023/01/03 07:55:13;;;;;;;47.92;21.30;;;1.80;99.90;;;;;;5025825;28;20104;-66
2023/01/03 07:57:39;;;;;;;44.47;21.05;;;1.80;99.90;;;;;;5024372;28;20048;-66
2023/01/03 08:00:05;;;;;;;46.63;21.90;;;1.70;99.90;;;;;;5025132;28;20048;-66
2023/01/03 08:02:31;;;;;;;43.83;20.27;;;1.80;99.90;;;;;;5033446;28;20048;-66
2023/01/03 08:04:56;;;;;;;40.53;19.23;;;1.70;99.90;;;;;;5023729;28;20523;-66
2023/01/03 08:07:22;;;;;;;43.67;18.67;;;1.70;99.90;;;;;;5030142;28;20504;-67
2023/01/03 08:15:15;;;;;;;93.47;18.98;;;1.40;99.90;;;;;;5028966;28;20064;-66
2023/01/03 08:17:41;;;;;;;39.35;14.60;;;1.30;99.90;;;;;;5032952;28;20037;-66
2023/01/03 08:20:07;;;;;;;58.50;14.85;;;1.30;99.90;;;;;;5028423;28;20045;-66
2023/01/03 08:22:33;;;;;;;34.05;14.10;;;1.40;99.90;;;;;;5025170;28;20122;-66
2023/01/03 08:24:58;;;;;;;77.93;17.98;;;1.30;99.90;;;;;;5028504;28;20064;-66
2023/01/03 08:27:24;;;;;;;71.50;17.65;;;1.20;99.90;;;;;;5012818;28;20034;-65
2023/01/03 08:29:49;;;;;;;48.55;16.02;;;1.30;99.90;;;;;;5028681;28;20084;-67
2023/01/03 08:32:15;;;;;;;31.98;13.60;;;1.40;99.90;;;;;;5013743;28;20096;-65
2023/01/03 08:34:43;;;;;;;120.03;23.02;;;1.40;99.90;;;;;;5032393;28;20508;-65
2023/01/03 08:37:11;;;;;;;69.22;19.13;;;1.40;99.90;;;;;;5032725;28;20059;-66
2023/01/03 08:39:42;;;;;;;60.92;17.38;;;1.50;99.90;;;;;;5030144;28;20073;-65
2023/01/03 08:42:10;;;;;;;64.95;18.73;;;1.50;99.90;;;;;;5030102;28;20534;-67
2023/01/03 08:44:36;;;;;;;67.40;18.98;;;1.60;99.90;;;;;;5033141;28;20046;-67
2023/01/03 08:47:05;;;;;;;72.43;18.33;;;1.70;99.90;;;;;;5033351;28;20045;-66
2023/01/03 08:49:31;;;;;;;86.72;20.38;;;1.70;99.90;;;;;;5032258;28;20374;-67
2023/01/03 08:51:56;;;;;;;63.20;19.83;;;1.80;99.90;;;;;;5024296;28;20044;-66
2023/01/03 08:54:22;;;;;;;83.50;21.48;;;1.80;99.90;;;;;;5031547;28;20046;-67
2023/01/03 08:56:47;;;;;;;100.57;21.35;;;1.90;99.90;;;;;;5022352;28;20042;-66
2023/01/03 08:59:13;;;;;;;128.63;24.30;;;2.00;99.90;;;;;;5027849;28;20095;-66
2023/01/03 09:01:39;;;;;;;111.95;22.95;;;2.10;99.90;;;;;;5030904;28;20049;-67
2023/01/03 09:04:04;;;;;;;111.32;23.23;;;2.20;99.90;;;;;;5048995;28;20048;-65
2023/01/03 09:06:30;;;;;;;91.93;24.05;;;2.20;99.90;;;;;;5025718;28;20033;-67
2023/01/03 09:08:56;;;;;;;104.90;24.67;;;2.30;99.90;;;;;;5024987;28;20037;-66
2023/01/03 09:11:21;;;;;;;129.02;26.52;;;2.40;99.90;;;;;;5028310;28;20053;-67
2023/01/03 09:13:47;;;;;;;127.57;27.92;;;2.50;99.90;;;;;;5008666;28;20370;-67
2023/01/03 09:16:15;;;;;;;101.80;27.13;;;2.60;99.90;;;;;;5027186;28;20029;-67
2023/01/03 09:18:41;;;;;;;102.35;26.38;;;2.60;99.90;;;;;;5022032;28;20046;-67
2023/01/03 09:21:07;;;;;;;140.35;29.50;;;2.70;99.90;;;;;;5032254;28;20076;-67
2023/01/03 09:23:34;;;;;;;114.85;29.10;;;2.70;99.90;;;;;;5026460;28;20056;-67
2023/01/03 09:25:59;;;;;;;101.85;27.40;;;2.80;99.90;;;;;;5021064;28;20037;-66
2023/01/03 09:28:26;;;;;;;97.30;27.38;;;2.90;99.90;;;;;;5031005;28;20488;-67
2023/01/03 09:30:51;;;;;;;114.93;30.50;;;2.90;99.90;;;;;;5031536;28;20489;-67
2023/01/03 09:33:17;;;;;;;161.07;36.17;;;3.00;99.90;;;;;;5026175;28;20052;-66
2023/01/03 09:35:43;;;;;;;129.32;32.75;;;3.10;99.90;;;;;;5023494;28;20508;-67
2023/01/03 09:38:09;;;;;;;103.85;31.33;;;3.20;99.90;;;;;;5028428;28;20033;-67
2023/01/03 09:40:44;;;;;;;135.00;35.03;;;3.30;99.90;;;;;;5022834;28;20053;-66
2023/01/03 09:43:21;;;;;;;143.82;38.70;;;3.30;99.90;;;;;;5023803;28;20049;-68
2023/01/03 09:45:57;;;;;;;114.43;35.05;;;3.40;99.90;;;;;;5028064;28;20033;-65
2023/01/03 09:48:33;;;;;;;152.82;36.97;;;3.50;99.90;;;;;;5031556;28;20037;-66
2023/01/03 09:50:59;;;;;;;127.35;34.60;;;3.60;99.90;;;;;;5025052;28;20056;-67
2023/01/03 10:05:10;;;;;;;129.05;36.45;;;4.10;99.90;;;;;;5045369;28;20045;-66
2023/01/03 10:08:03;;;;;;;139.05;39.13;;;4.20;99.90;;;;;;5032473;28;20088;-67
2023/01/03 10:11:07;;;;;;;130.73;35.10;;;4.20;99.90;;;;;;5030751;28;20037;-67
2023/01/03 10:13:51;;;;;;;125.90;38.05;;;4.30;99.90;;;;;;5019482;28;20045;-66
2023/01/03 10:16:17;;;;;;;127.82;36.58;;;4.30;99.90;;;;;;5031797;28;20041;-67
2023/01/03 10:19:03;;;;;;;113.30;35.30;;;4.30;99.90;;;;;;5031787;28;20199;-67
2023/01/03 10:21:51;;;;;;;111.60;35.78;;;4.40;99.90;;;;;;5030062;28;20038;-67
2023/01/03 10:24:23;;;;;;;116.35;35.72;;;4.40;99.90;;;;;;5029881;28;20061;-67
2023/01/03 10:26:52;;;;;;;112.75;34.38;;;4.40;99.90;;;;;;5032682;28;20045;-66
2023/01/03 10:29:19;;;;;;;108.50;34.73;;;4.40;99.90;;;;;;5031590;28;20050;-69
2023/01/03 10:32:01;;;;;;;104.32;33.03;;;4.50;99.90;;;;;;5029630;28;20110;-66
2023/01/03 10:34:27;;;;;;;99.20;33.00;;;4.50;99.90;;;;;;5014056;28;20042;-67
2023/01/03 10:36:52;;;;;;;104.57;33.45;;;4.50;99.90;;;;;;5039765;28;20059;-67
2023/01/03 10:39:28;;;;;;;117.80;34.17;;;4.60;99.90;;;;;;5047639;28;20060;-71
2023/01/03 10:41:57;;;;;;;104.18;34.10;;;4.60;99.90;;;;;;5028223;28;20041;-69
2023/01/03 10:44:32;;;;;;;108.22;32.63;;;4.60;99.90;;;;;;5026923;28;20041;-69
2023/01/03 10:47:09;;;;;;;112.32;34.90;;;4.60;99.90;;;;;;5030491;28;20060;-71
2023/01/03 10:49:35;;;;;;;111.40;34.15;;;4.60;99.90;;;;;;5014282;28;20042;-69
2023/01/03 10:52:18;;;;;;;114.72;35.25;;;4.70;99.90;;;;;;5013144;28;20068;-70
2023/01/03 10:54:54;;;;;;;100.68;33.80;;;4.70;99.90;;;;;;5032364;28;20117;-69
2023/01/03 10:57:52;;;;;;;111.05;33.90;;;4.80;99.90;;;;;;5026435;28;20050;-70
2023/01/03 11:00:26;;;;;;;110.45;34.50;;;4.80;99.90;;;;;;5025680;28;20513;-69
2023/01/03 11:02:54;;;;;;;104.93;35.25;;;4.90;99.90;;;;;;5013491;28;20394;-70
2023/01/03 11:05:25;;;;;;;117.20;37.47;;;5.00;99.90;;;;;;5029055;28;20064;-69
2023/01/03 11:07:56;;;;;;;111.63;35.40;;;5.00;99.90;;;;;;5031387;28;20504;-71
2023/01/03 11:10:23;;;;;;;112.88;35.53;;;5.00;99.90;;;;;;5030057;28;20049;-70
2023/01/03 11:12:49;;;;;;;106.97;35.78;;;5.00;99.90;;;;;;5025403;28;20037;-70
2023/01/03 11:15:37;;;;;;;111.75;35.20;;;4.90;99.90;;;;;;5029827;28;20530;-69
2023/01/03 11:18:05;;;;;;;109.00;35.17;;;4.90;99.90;;;;;;5028096;28;20033;-72
2023/01/03 11:20:46;;;;;;;107.85;35.00;;;5.00;99.90;;;;;;5026683;28;20053;-71
2023/01/03 11:23:23;;;;;;;101.75;34.42;;;5.00;99.90;;;;;;5027671;28;20541;-72
2023/01/03 11:26:08;;;;;;;101.72;34.72;;;5.10;99.90;;;;;;5029850;28;20607;-72
2023/01/03 11:29:12;;;;;;;99.93;34.47;;;5.10;99.90;;;;;;5023310;28;20030;-70
2023/01/03 11:32:08;;;;;;;92.55;31.48;;;5.20;99.90;;;;;;5029398;28;20045;-71
2023/01/03 11:34:52;;;;;;;86.60;31.63;;;5.20;99.90;;;;;;5010598;28;20132;-68
2023/01/03 11:37:43;;;;;;;90.60;32.72;;;5.30;99.90;;;;;;5034652;28;20040;-69
2023/01/03 11:40:34;;;;;;;84.55;32.13;;;5.40;99.90;;;;;;5035670;28;20045;-68
2023/01/03 11:43:18;;;;;;;;;;;5.50;99.90;;;;;;5040750;28;20069;-68
2023/01/03 11:46:08;;;;;;;80.82;29.85;;;5.50;99.90;;;;;;5030968;28;20264;-69
2023/01/03 11:49:25;;;;;;;81.45;31.75;;;5.60;99.90;;;;;;5028600;28;20722;-68
2023/01/03 11:52:22;;;;;;;90.30;32.55;;;5.60;99.90;;;;;;4966177;28;20461;-68
2023/01/03 11:54:53;;;;;;;81.80;31.65;;;5.70;99.90;;;;;;5037231;28;20374;-68
2023/01/03 11:57:49;;;;;;;80.95;30.77;;;5.70;99.90;;;;;;5015310;28;20056;-69
2023/01/03 12:00:42;;;;;;;80.75;31.25;;;5.60;99.90;;;;;;5010424;28;20056;-68
2023/01/03 12:03:34;;;;;;;74.15;30.33;;;5.70;99.90;;;;;;5010696;28;20351;-68
2023/01/03 12:06:11;;;;;;;78.95;30.58;;;5.70;99.90;;;;;;5021215;28;20102;-69
2023/01/03 12:08:40;;;;;;;74.60;29.67;;;5.70;99.90;;;;;;5026777;28;20517;-69
2023/01/03 12:11:34;;;;;;;72.18;30.60;;;5.70;99.90;;;;;;5013892;28;20042;-69
2023/01/03 12:14:47;;;;;;;69.72;28.90;;;5.70;99.90;;;;;;5012141;28;20497;-70
2023/01/03 12:17:21;;;;;;;71.03;28.55;;;5.70;99.90;;;;;;5016706;28;20111;-69
2023/01/03 12:20:09;;;;;;;61.53;26.23;;;5.70;99.90;;;;;;5028045;28;20046;-67
2023/01/03 12:22:43;;;;;;;60.97;25.65;;;5.70;99.90;;;;;;5025472;28;20065;-68
2023/01/03 12:25:20;;;;;;;67.32;26.80;;;5.80;99.90;;;;;;5029470;28;20530;-70
2023/01/03 12:28:12;;;;;;;57.38;25.23;;;5.80;99.90;;;;;;5023164;28;20048;-69
2023/01/03 12:30:47;;;;;;;55.78;25.88;;;5.80;99.90;;;;;;5022123;28;20046;-68
2023/01/03 12:33:35;;;;;;;60.63;26.33;;;5.80;99.90;;;;;;5025496;28;20033;-68
2023/01/03 12:36:14;;;;;;;58.65;25.25;;;5.80;99.90;;;;;;5025367;28;20041;-68
2023/01/03 12:38:46;;;;;;;54.65;24.85;;;5.90;99.90;;;;;;5015276;28;20041;-68
2023/01/03 12:41:31;;;;;;;57.83;24.58;;;5.90;99.90;;;;;;5042204;28;20076;-69
2023/01/03 12:44:03;;;;;;;50.20;23.70;;;6.00;99.90;;;;;;5027145;28;20061;-69
2023/01/03 12:46:34;;;;;;;49.80;24.08;;;6.00;99.90;;;;;;5010301;28;20037;-66
2023/01/03 12:49:08;;;;;;;;;;;6.00;99.90;;;;;;5031484;28;20095;-64
2023/01/03 12:51:35;;;;;;;44.95;21.10;;;6.00;99.90;;;;;;5032062;28;19917;-63
2023/01/03 12:54:38;;;;;;;50.70;22.40;;;6.00;99.90;;;;;;5033076;28;20067;-63
2023/01/03 12:57:17;;;;;;;52.15;23.25;;;6.10;99.90;;;;;;5032366;28;20575;-63
2023/01/03 13:00:01;;;;;;;50.25;22.30;;;6.10;99.90;;;;;;5025808;28;20052;-63
2023/01/03 13:02:36;;;;;;;50.60;21.50;;;6.10;99.90;;;;;;5017830;28;20046;-64
2023/01/03 13:05:37;;;;;;;45.08;20.25;;;6.10;99.90;;;;;;5000802;28;20057;-63
2023/01/03 13:08:08;;;;;;;50.25;21.48;;;6.10;99.90;;;;;;4984792;28;20046;-64
2023/01/03 13:10:39;;;;;;;49.13;21.50;;;6.10;99.90;;;;;;5012256;28;20037;-64
2023/01/03 13:13:05;;;;;;;46.38;21.35;;;6.10;99.90;;;;;;5036881;28;20045;-63
2023/01/03 13:15:32;;;;;;;44.65;20.83;;;6.10;99.90;;;;;;5031673;28;20137;-64
2023/01/03 13:18:34;;;;;;;40.15;20.13;;;6.10;99.90;;;;;;5019957;28;20085;-63
2023/01/03 13:21:00;;;;;;;44.60;19.65;;;6.10;99.90;;;;;;4976676;28;20061;-64
2023/01/03 13:23:33;;;;;;;43.45;20.35;;;6.10;99.90;;;;;;5024623;28;20056;-63
2023/01/03 13:26:04;;;;;;;47.35;20.60;;;6.10;99.90;;;;;;5014617;28;20528;-64
2023/01/03 13:28:35;;;;;;;43.40;19.05;;;6.20;99.90;;;;;;5013147;28;20041;-63
2023/01/03 13:31:13;;;;;;;49.28;19.50;;;6.20;99.90;;;;;;5041216;28;20041;-63
2023/01/03 13:33:54;;;;;;;43.20;19.58;;;6.20;99.90;;;;;;5023889;28;20124;-63
2023/01/03 13:36:21;;;;;;;47.03;19.88;;;6.20;99.90;;;;;;5026855;28;20056;-64
2023/01/03 13:38:47;;;;;;;42.75;19.25;;;6.20;99.90;;;;;;5030027;28;20425;-63
2023/01/03 13:41:33;;;;;;;45.03;20.23;;;6.20;99.90;;;;;;5037841;28;20064;-63
2023/01/03 13:44:16;;;;;;;48.05;20.33;;;6.30;99.90;;;;;;5029310;28;20079;-64
2023/01/03 13:46:42;;;;;;;45.72;18.70;;;6.30;99.90;;;;;;5031161;28;20029;-65
2023/01/03 13:49:26;;;;;;;42.22;19.60;;;6.30;99.90;;;;;;5036609;28;20145;-64
2023/01/03 13:51:54;;;;;;;60.22;18.67;;;6.40;99.90;;;;;;5028215;28;20096;-63
2023/01/03 13:54:20;;;;;;;44.97;18.95;;;6.30;99.90;;;;;;5031875;28;20037;-63
2023/01/03 13:56:49;;;;;;;46.47;19.33;;;6.40;99.90;;;;;;5046790;28;20057;-64
2023/01/03 13:59:16;;;;;;;52.20;19.90;;;6.30;99.90;;;;;;5032802;28;20049;-64